sensor_id;sensor_type;location;lat;lon;timestamp;P1;durP1;ratioP1;P2;durP2;ratioP2
64795;SDS011;51229;51.980;6.722;2022-08-19T00:01:22;8.68;;;7.65;;
64795;SDS011;51229;51.980;6.722;2022-08-19T00:03:49;9.25;;;7.00;;
64795;SDS011;51229;51.980;6.722;2022-08-19T00:06:15;9.20;;;7.40;;
64795;SDS011;51229;51.980;6.722;2022-08-19T00:08:41;9.10;;;7.20;;
64795;SDS011;51229;51.980;6.722;2022-08-19T00:11:07;8.95;;;7.30;;
64795;SDS011;51229;51.980;6.722;2022-08-19T00:13:34;10.35;;;7.30;;
64795;SDS011;51229;51.980;6.722;2022-08-19T00:16:00;8.57;;;7.68;;
64795;SDS011;51229;51.980;6.722;2022-08-19T00:18:26;11.05;;;8.30;;
64795;SDS011;51229;51.980;6.722;2022-08-19T00:20:52;9.30;;;7.88;;
64795;SDS011;51229;51.980;6.722;2022-08-19T00:23:18;9.07;;;7.93;;
64795;SDS011;51229;51.980;6.722;2022-08-19T00:25:44;8.65;;;7.70;;
64795;SDS011;51229;51.980;6.722;2022-08-19T00:28:10;9.18;;;7.70;;
64795;SDS011;51229;51.980;6.722;2022-08-19T00:30:36;11.23;;;8.15;;
64795;SDS011;51229;51.980;6.722;2022-08-19T00:33:02;9.40;;;8.45;;
64795;SDS011;51229;51.980;6.722;2022-08-19T00:35:28;11.35;;;8.85;;
64795;SDS011;51229;51.980;6.722;2022-08-19T00:37:54;8.52;;;7.07;;
64795;SDS011;51229;51.980;6.722;2022-08-19T00:40:20;9.35;;;8.25;;
64795;SDS011;51229;51.980;6.722;2022-08-19T00:42:46;11.43;;;9.80;;
64795;SDS011;51229;51.980;6.722;2022-08-19T00:45:22;10.95;;;8.75;;
64795;SDS011;51229;51.980;6.722;2022-08-19T00:47:50;9.98;;;8.45;;
64795;SDS011;51229;51.980;6.722;2022-08-19T00:50:16;10.73;;;9.38;;
64795;SDS011;51229;51.980;6.722;2022-08-19T00:52:45;9.68;;;8.70;;
64795;SDS011;51229;51.980;6.722;2022-08-19T00:55:23;10.75;;;9.32;;
64795;SDS011;51229;51.980;6.722;2022-08-19T00:57:52;10.90;;;9.20;;
64795;SDS011;51229;51.980;6.722;2022-08-19T01:00:28;10.10;;;8.38;;
64795;SDS011;51229;51.980;6.722;2022-08-19T01:02:55;10.23;;;9.13;;
64795;SDS011;51229;51.980;6.722;2022-08-19T01:05:22;8.73;;;6.25;;
64795;SDS011;51229;51.980;6.722;2022-08-19T01:07:52;9.35;;;8.20;;
64795;SDS011;51229;51.980;6.722;2022-08-19T01:10:19;9.75;;;8.75;;
64795;SDS011;51229;51.980;6.722;2022-08-19T01:12:49;9.73;;;8.65;;
64795;SDS011;51229;51.980;6.722;2022-08-19T01:15:17;9.88;;;8.27;;
64795;SDS011;51229;51.980;6.722;2022-08-19T01:17:46;10.15;;;8.43;;
64795;SDS011;51229;51.980;6.722;2022-08-19T01:20:14;10.18;;;8.63;;
64795;SDS011;51229;51.980;6.722;2022-08-19T01:22:49;10.75;;;8.98;;
64795;SDS011;51229;51.980;6.722;2022-08-19T01:25:29;10.55;;;8.85;;
64795;SDS011;51229;51.980;6.722;2022-08-19T01:28:06;10.70;;;9.20;;
64795;SDS011;51229;51.980;6.722;2022-08-19T01:30:33;11.02;;;8.88;;
64795;SDS011;51229;51.980;6.722;2022-08-19T01:33:00;10.02;;;8.85;;
64795;SDS011;51229;51.980;6.722;2022-08-19T01:35:28;9.45;;;8.45;;
64795;SDS011;51229;51.980;6.722;2022-08-19T01:37:56;10.10;;;8.73;;
64795;SDS011;51229;51.980;6.722;2022-08-19T01:40:25;11.65;;;9.45;;
64795;SDS011;51229;51.980;6.722;2022-08-19T01:42:54;10.65;;;9.07;;
64795;SDS011;51229;51.980;6.722;2022-08-19T01:45:21;12.52;;;9.40;;
64795;SDS011;51229;51.980;6.722;2022-08-19T01:47:48;10.95;;;9.20;;
64795;SDS011;51229;51.980;6.722;2022-08-19T01:50:14;10.57;;;8.55;;
64795;SDS011;51229;51.980;6.722;2022-08-19T01:52:41;10.15;;;8.82;;
64795;SDS011;51229;51.980;6.722;2022-08-19T01:55:10;10.00;;;8.30;;
64795;SDS011;51229;51.980;6.722;2022-08-19T01:57:39;9.40;;;7.47;;
64795;SDS011;51229;51.980;6.722;2022-08-19T02:00:09;10.55;;;9.02;;
64795;SDS011;51229;51.980;6.722;2022-08-19T02:02:37;9.93;;;8.90;;
64795;SDS011;51229;51.980;6.722;2022-08-19T02:05:03;10.95;;;9.07;;
64795;SDS011;51229;51.980;6.722;2022-08-19T02:07:29;9.43;;;8.40;;
64795;SDS011;51229;51.980;6.722;2022-08-19T02:09:55;9.98;;;8.63;;
64795;SDS011;51229;51.980;6.722;2022-08-19T02:12:20;10.50;;;9.07;;
64795;SDS011;51229;51.980;6.722;2022-08-19T02:14:46;11.20;;;8.80;;
64795;SDS011;51229;51.980;6.722;2022-08-19T02:17:12;9.77;;;8.20;;
64795;SDS011;51229;51.980;6.722;2022-08-19T02:19:38;9.00;;;8.02;;
64795;SDS011;51229;51.980;6.722;2022-08-19T02:22:04;8.75;;;7.85;;
64795;SDS011;51229;51.980;6.722;2022-08-19T02:24:30;12.20;;;9.40;;
64795;SDS011;51229;51.980;6.722;2022-08-19T02:26:56;10.45;;;9.38;;
64795;SDS011;51229;51.980;6.722;2022-08-19T02:29:22;10.50;;;8.90;;
64795;SDS011;51229;51.980;6.722;2022-08-19T02:31:47;10.57;;;9.18;;
64795;SDS011;51229;51.980;6.722;2022-08-19T02:34:13;11.30;;;9.70;;
64795;SDS011;51229;51.980;6.722;2022-08-19T02:36:39;11.07;;;9.73;;
64795;SDS011;51229;51.980;6.722;2022-08-19T02:39:04;11.27;;;9.65;;
64795;SDS011;51229;51.980;6.722;2022-08-19T02:41:31;10.70;;;9.30;;
64795;SDS011;51229;51.980;6.722;2022-08-19T02:43:58;11.80;;;9.63;;
64795;SDS011;51229;51.980;6.722;2022-08-19T02:46:27;11.20;;;9.30;;
64795;SDS011;51229;51.980;6.722;2022-08-19T02:48:59;10.98;;;9.38;;
64795;SDS011;51229;51.980;6.722;2022-08-19T02:51:29;10.85;;;8.82;;
64795;SDS011;51229;51.980;6.722;2022-08-19T02:53:57;10.45;;;9.32;;
64795;SDS011;51229;51.980;6.722;2022-08-19T02:56:24;11.20;;;9.00;;
64795;SDS011;51229;51.980;6.722;2022-08-19T02:58:52;13.70;;;10.10;;
64795;SDS011;51229;51.980;6.722;2022-08-19T03:01:19;11.68;;;10.35;;
64795;SDS011;51229;51.980;6.722;2022-08-19T03:03:50;11.07;;;9.88;;
64795;SDS011;51229;51.980;6.722;2022-08-19T03:06:16;9.27;;;7.78;;
64795;SDS011;51229;51.980;6.722;2022-08-19T03:08:43;9.85;;;8.80;;
64795;SDS011;51229;51.980;6.722;2022-08-19T03:11:14;10.20;;;9.10;;
64795;SDS011;51229;51.980;6.722;2022-08-19T03:13:42;9.60;;;8.45;;
64795;SDS011;51229;51.980;6.722;2022-08-19T03:16:08;11.13;;;9.32;;
64795;SDS011;51229;51.980;6.722;2022-08-19T03:18:35;9.77;;;8.73;;
64795;SDS011;51229;51.980;6.722;2022-08-19T03:21:01;11.93;;;9.55;;
64795;SDS011;51229;51.980;6.722;2022-08-19T03:23:26;10.30;;;8.95;;
64795;SDS011;51229;51.980;6.722;2022-08-19T03:25:52;12.05;;;9.68;;
64795;SDS011;51229;51.980;6.722;2022-08-19T03:28:19;10.50;;;9.38;;
64795;SDS011;51229;51.980;6.722;2022-08-19T03:30:59;10.68;;;8.48;;
64795;SDS011;51229;51.980;6.722;2022-08-19T03:33:28;9.77;;;8.32;;
64795;SDS011;51229;51.980;6.722;2022-08-19T03:36:05;10.52;;;8.63;;
64795;SDS011;51229;51.980;6.722;2022-08-19T03:38:37;10.82;;;8.15;;
64795;SDS011;51229;51.980;6.722;2022-08-19T03:41:08;10.07;;;7.60;;
64795;SDS011;51229;51.980;6.722;2022-08-19T03:43:37;11.35;;;8.98;;
64795;SDS011;51229;51.980;6.722;2022-08-19T03:46:04;11.05;;;9.40;;
64795;SDS011;51229;51.980;6.722;2022-08-19T03:48:32;12.57;;;9.88;;
64795;SDS011;51229;51.980;6.722;2022-08-19T03:50:59;9.57;;;8.07;;
64795;SDS011;51229;51.980;6.722;2022-08-19T03:53:26;10.00;;;8.43;;
64795;SDS011;51229;51.980;6.722;2022-08-19T03:55:53;10.63;;;8.30;;
64795;SDS011;51229;51.980;6.722;2022-08-19T03:58:20;11.82;;;9.05;;
64795;SDS011;51229;51.980;6.722;2022-08-19T04:00:47;10.02;;;8.30;;
64795;SDS011;51229;51.980;6.722;2022-08-19T04:03:13;11.80;;;9.55;;
64795;SDS011;51229;51.980;6.722;2022-08-19T04:05:39;12.50;;;9.48;;
64795;SDS011;51229;51.980;6.722;2022-08-19T04:08:05;10.63;;;9.10;;
64795;SDS011;51229;51.980;6.722;2022-08-19T04:10:35;10.73;;;9.63;;
64795;SDS011;51229;51.980;6.722;2022-08-19T04:13:02;12.38;;;10.10;;
64795;SDS011;51229;51.980;6.722;2022-08-19T04:15:32;12.23;;;9.27;;
64795;SDS011;51229;51.980;6.722;2022-08-19T04:18:04;11.30;;;9.83;;
64795;SDS011;51229;51.980;6.722;2022-08-19T04:20:32;11.80;;;10.18;;
64795;SDS011;51229;51.980;6.722;2022-08-19T04:23:03;11.88;;;9.70;;
64795;SDS011;51229;51.980;6.722;2022-08-19T04:25:33;13.00;;;9.88;;
64795;SDS011;51229;51.980;6.722;2022-08-19T04:28:03;11.38;;;9.52;;
64795;SDS011;51229;51.980;6.722;2022-08-19T04:30:29;10.48;;;8.80;;
64795;SDS011;51229;51.980;6.722;2022-08-19T04:32:55;13.75;;;10.35;;
64795;SDS011;51229;51.980;6.722;2022-08-19T04:35:20;12.38;;;10.52;;
64795;SDS011;51229;51.980;6.722;2022-08-19T04:37:46;13.13;;;10.85;;
64795;SDS011;51229;51.980;6.722;2022-08-19T04:40:12;13.52;;;11.18;;
64795;SDS011;51229;51.980;6.722;2022-08-19T04:42:56;15.52;;;12.57;;
64795;SDS011;51229;51.980;6.722;2022-08-19T04:45:21;12.55;;;10.98;;
64795;SDS011;51229;51.980;6.722;2022-08-19T04:47:47;13.02;;;11.48;;
64795;SDS011;51229;51.980;6.722;2022-08-19T04:50:13;11.05;;;9.55;;
64795;SDS011;51229;51.980;6.722;2022-08-19T04:52:40;10.40;;;8.32;;
64795;SDS011;51229;51.980;6.722;2022-08-19T04:55:09;13.85;;;11.63;;
64795;SDS011;51229;51.980;6.722;2022-08-19T04:57:36;13.52;;;11.30;;
64795;SDS011;51229;51.980;6.722;2022-08-19T05:00:05;13.93;;;10.55;;
64795;SDS011;51229;51.980;6.722;2022-08-19T05:02:32;12.55;;;10.82;;
64795;SDS011;51229;51.980;6.722;2022-08-19T05:04:58;13.30;;;10.88;;
64795;SDS011;51229;51.980;6.722;2022-08-19T05:07:25;13.05;;;10.85;;
64795;SDS011;51229;51.980;6.722;2022-08-19T05:09:51;12.18;;;10.68;;
64795;SDS011;51229;51.980;6.722;2022-08-19T05:12:17;14.55;;;11.27;;
64795;SDS011;51229;51.980;6.722;2022-08-19T05:14:44;13.20;;;11.80;;
64795;SDS011;51229;51.980;6.722;2022-08-19T05:17:11;13.00;;;11.57;;
64795;SDS011;51229;51.980;6.722;2022-08-19T05:19:36;13.77;;;12.05;;
64795;SDS011;51229;51.980;6.722;2022-08-19T05:22:20;14.07;;;12.13;;
64795;SDS011;51229;51.980;6.722;2022-08-19T05:25:10;13.63;;;11.35;;
64795;SDS011;51229;51.980;6.722;2022-08-19T05:27:38;14.25;;;11.63;;
64795;SDS011;51229;51.980;6.722;2022-08-19T05:30:05;13.77;;;11.00;;
64795;SDS011;51229;51.980;6.722;2022-08-19T05:32:31;13.32;;;11.93;;
64795;SDS011;51229;51.980;6.722;2022-08-19T05:34:56;17.60;;;10.80;;
64795;SDS011;51229;51.980;6.722;2022-08-19T05:37:22;13.77;;;11.90;;
64795;SDS011;51229;51.980;6.722;2022-08-19T05:39:48;16.60;;;12.30;;
64795;SDS011;51229;51.980;6.722;2022-08-19T05:42:14;12.40;;;9.98;;
64795;SDS011;51229;51.980;6.722;2022-08-19T05:44:41;14.45;;;11.95;;
64795;SDS011;51229;51.980;6.722;2022-08-19T05:47:09;14.38;;;12.70;;
64795;SDS011;51229;51.980;6.722;2022-08-19T05:49:36;13.40;;;11.70;;
64795;SDS011;51229;51.980;6.722;2022-08-19T05:52:03;14.23;;;12.45;;
64795;SDS011;51229;51.980;6.722;2022-08-19T05:54:31;12.98;;;11.07;;
64795;SDS011;51229;51.980;6.722;2022-08-19T05:56:57;14.35;;;12.57;;
64795;SDS011;51229;51.980;6.722;2022-08-19T05:59:23;17.70;;;13.15;;
64795;SDS011;51229;51.980;6.722;2022-08-19T06:01:49;15.70;;;12.35;;
64795;SDS011;51229;51.980;6.722;2022-08-19T06:04:18;16.20;;;12.95;;
64795;SDS011;51229;51.980;6.722;2022-08-19T06:06:45;17.05;;;12.85;;
64795;SDS011;51229;51.980;6.722;2022-08-19T06:09:17;16.70;;;13.32;;
64795;SDS011;51229;51.980;6.722;2022-08-19T06:11:45;17.27;;;13.85;;
64795;SDS011;51229;51.980;6.722;2022-08-19T06:14:14;16.63;;;12.20;;
64795;SDS011;51229;51.980;6.722;2022-08-19T06:16:43;18.02;;;13.27;;
64795;SDS011;51229;51.980;6.722;2022-08-19T06:19:13;17.58;;;14.10;;
64795;SDS011;51229;51.980;6.722;2022-08-19T06:21:42;17.05;;;14.75;;
64795;SDS011;51229;51.980;6.722;2022-08-19T06:24:10;16.45;;;13.43;;
64795;SDS011;51229;51.980;6.722;2022-08-19T06:26:38;18.30;;;13.00;;
64795;SDS011;51229;51.980;6.722;2022-08-19T06:29:06;16.08;;;12.85;;
64795;SDS011;51229;51.980;6.722;2022-08-19T06:31:34;20.35;;;14.70;;
64795;SDS011;51229;51.980;6.722;2022-08-19T06:34:02;18.80;;;14.45;;
64795;SDS011;51229;51.980;6.722;2022-08-19T06:36:34;17.33;;;13.85;;
64795;SDS011;51229;51.980;6.722;2022-08-19T06:39:06;18.33;;;13.93;;
64795;SDS011;51229;51.980;6.722;2022-08-19T06:41:34;15.68;;;13.10;;
64795;SDS011;51229;51.980;6.722;2022-08-19T06:44:02;20.17;;;14.70;;
64795;SDS011;51229;51.980;6.722;2022-08-19T06:46:27;16.23;;;12.65;;
64795;SDS011;51229;51.980;6.722;2022-08-19T06:48:53;18.38;;;13.27;;
64795;SDS011;51229;51.980;6.722;2022-08-19T06:51:20;18.52;;;14.73;;
64795;SDS011;51229;51.980;6.722;2022-08-19T06:53:48;20.02;;;14.63;;
64795;SDS011;51229;51.980;6.722;2022-08-19T06:56:16;14.30;;;11.43;;
64795;SDS011;51229;51.980;6.722;2022-08-19T06:58:43;16.65;;;14.07;;
64795;SDS011;51229;51.980;6.722;2022-08-19T07:01:09;18.15;;;14.55;;
64795;SDS011;51229;51.980;6.722;2022-08-19T07:03:36;18.50;;;14.68;;
64795;SDS011;51229;51.980;6.722;2022-08-19T07:06:09;22.05;;;15.10;;
64795;SDS011;51229;51.980;6.722;2022-08-19T07:11:06;16.15;;;12.68;;
64795;SDS011;51229;51.980;6.722;2022-08-19T07:13:33;18.65;;;13.68;;
64795;SDS011;51229;51.980;6.722;2022-08-19T07:16:05;15.32;;;11.73;;
64795;SDS011;51229;51.980;6.722;2022-08-19T07:18:33;19.58;;;15.80;;
64795;SDS011;51229;51.980;6.722;2022-08-19T07:21:09;17.67;;;14.55;;
64795;SDS011;51229;51.980;6.722;2022-08-19T07:23:41;20.48;;;16.58;;
64795;SDS011;51229;51.980;6.722;2022-08-19T07:26:10;21.45;;;15.98;;
64795;SDS011;51229;51.980;6.722;2022-08-19T07:28:57;17.30;;;13.88;;
64795;SDS011;51229;51.980;6.722;2022-08-19T07:31:25;19.88;;;15.77;;
64795;SDS011;51229;51.980;6.722;2022-08-19T07:33:53;15.00;;;11.75;;
64795;SDS011;51229;51.980;6.722;2022-08-19T07:36:23;21.60;;;15.02;;
64795;SDS011;51229;51.980;6.722;2022-08-19T07:38:51;18.05;;;14.15;;
64795;SDS011;51229;51.980;6.722;2022-08-19T07:41:23;18.58;;;14.43;;
64795;SDS011;51229;51.980;6.722;2022-08-19T07:43:50;23.77;;;16.58;;
64795;SDS011;51229;51.980;6.722;2022-08-19T07:46:17;17.63;;;14.60;;
64795;SDS011;51229;51.980;6.722;2022-08-19T07:48:45;20.75;;;16.10;;
64795;SDS011;51229;51.980;6.722;2022-08-19T07:51:13;20.73;;;15.85;;
64795;SDS011;51229;51.980;6.722;2022-08-19T07:53:41;18.60;;;15.57;;
64795;SDS011;51229;51.980;6.722;2022-08-19T07:56:10;18.25;;;13.68;;
64795;SDS011;51229;51.980;6.722;2022-08-19T07:58:37;27.25;;;16.73;;
64795;SDS011;51229;51.980;6.722;2022-08-19T08:01:05;23.50;;;18.45;;
64795;SDS011;51229;51.980;6.722;2022-08-19T08:03:32;21.67;;;17.17;;
64795;SDS011;51229;51.980;6.722;2022-08-19T08:06:17;20.05;;;15.75;;
64795;SDS011;51229;51.980;6.722;2022-08-19T08:09:02;20.38;;;15.93;;
64795;SDS011;51229;51.980;6.722;2022-08-19T08:11:47;18.48;;;14.65;;
64795;SDS011;51229;51.980;6.722;2022-08-19T08:14:17;19.10;;;15.23;;
64795;SDS011;51229;51.980;6.722;2022-08-19T08:16:45;24.85;;;18.33;;
64795;SDS011;51229;51.980;6.722;2022-08-19T08:19:11;22.75;;;18.80;;
64795;SDS011;51229;51.980;6.722;2022-08-19T08:21:40;25.08;;;19.55;;
64795;SDS011;51229;51.980;6.722;2022-08-19T08:24:07;23.13;;;18.98;;
64795;SDS011;51229;51.980;6.722;2022-08-19T08:26:33;23.40;;;18.67;;
64795;SDS011;51229;51.980;6.722;2022-08-19T08:28:59;21.20;;;17.10;;
64795;SDS011;51229;51.980;6.722;2022-08-19T08:31:24;22.95;;;19.35;;
64795;SDS011;51229;51.980;6.722;2022-08-19T08:33:50;24.90;;;19.80;;
64795;SDS011;51229;51.980;6.722;2022-08-19T08:36:16;19.35;;;16.15;;
64795;SDS011;51229;51.980;6.722;2022-08-19T08:38:42;20.75;;;17.98;;
64795;SDS011;51229;51.980;6.722;2022-08-19T08:41:15;20.58;;;16.80;;
64795;SDS011;51229;51.980;6.722;2022-08-19T08:43:48;23.05;;;18.70;;
64795;SDS011;51229;51.980;6.722;2022-08-19T08:46:33;26.70;;;19.55;;
64795;SDS011;51229;51.980;6.722;2022-08-19T08:54:30;23.20;;;19.75;;
64795;SDS011;51229;51.980;6.722;2022-08-19T08:57:01;25.00;;;19.42;;
64795;SDS011;51229;51.980;6.722;2022-08-19T08:59:31;21.90;;;18.38;;
64795;SDS011;51229;51.980;6.722;2022-08-19T09:02:01;23.55;;;17.77;;
64795;SDS011;51229;51.980;6.722;2022-08-19T09:04:27;20.08;;;17.42;;
64795;SDS011;51229;51.980;6.722;2022-08-19T09:06:55;21.10;;;17.45;;
64795;SDS011;51229;51.980;6.722;2022-08-19T09:09:43;22.90;;;18.25;;
64795;SDS011;51229;51.980;6.722;2022-08-19T09:14:53;22.80;;;16.75;;
64795;SDS011;51229;51.980;6.722;2022-08-19T09:17:26;17.27;;;15.38;;
64795;SDS011;51229;51.980;6.722;2022-08-19T09:22:22;20.95;;;17.17;;
64795;SDS011;51229;51.980;6.722;2022-08-19T09:24:49;20.13;;;17.33;;
64795;SDS011;51229;51.980;6.722;2022-08-19T09:27:17;20.17;;;16.80;;
64795;SDS011;51229;51.980;6.722;2022-08-19T09:29:44;19.25;;;16.30;;
64795;SDS011;51229;51.980;6.722;2022-08-19T09:32:09;15.23;;;12.98;;
64795;SDS011;51229;51.980;6.722;2022-08-19T09:34:35;18.63;;;14.60;;
64795;SDS011;51229;51.980;6.722;2022-08-19T09:37:01;17.75;;;14.68;;
64795;SDS011;51229;51.980;6.722;2022-08-19T09:39:28;18.27;;;15.43;;
64795;SDS011;51229;51.980;6.722;2022-08-19T09:41:55;17.58;;;15.63;;
64795;SDS011;51229;51.980;6.722;2022-08-19T09:44:21;17.88;;;15.23;;
64795;SDS011;51229;51.980;6.722;2022-08-19T09:46:47;17.00;;;14.90;;
64795;SDS011;51229;51.980;6.722;2022-08-19T09:49:13;21.95;;;17.02;;
64795;SDS011;51229;51.980;6.722;2022-08-19T09:51:39;17.40;;;14.38;;
64795;SDS011;51229;51.980;6.722;2022-08-19T09:54:05;18.58;;;14.85;;
64795;SDS011;51229;51.980;6.722;2022-08-19T09:56:31;17.95;;;16.10;;
64795;SDS011;51229;51.980;6.722;2022-08-19T09:58:58;20.23;;;15.48;;
64795;SDS011;51229;51.980;6.722;2022-08-19T10:01:25;16.50;;;12.38;;
64795;SDS011;51229;51.980;6.722;2022-08-19T10:03:54;19.00;;;15.63;;
64795;SDS011;51229;51.980;6.722;2022-08-19T10:06:22;16.85;;;14.20;;
64795;SDS011;51229;51.980;6.722;2022-08-19T10:08:50;15.05;;;13.23;;
64795;SDS011;51229;51.980;6.722;2022-08-19T10:11:18;16.58;;;14.75;;
64795;SDS011;51229;51.980;6.722;2022-08-19T10:13:45;16.40;;;14.63;;
64795;SDS011;51229;51.980;6.722;2022-08-19T10:16:12;16.27;;;14.55;;
64795;SDS011;51229;51.980;6.722;2022-08-19T10:18:41;17.40;;;14.13;;
64795;SDS011;51229;51.980;6.722;2022-08-19T10:21:17;13.63;;;11.50;;
64795;SDS011;51229;51.980;6.722;2022-08-19T10:23:44;18.42;;;14.60;;
64795;SDS011;51229;51.980;6.722;2022-08-19T10:26:19;15.65;;;14.00;;
64795;SDS011;51229;51.980;6.722;2022-08-19T10:28:47;15.23;;;12.50;;
64795;SDS011;51229;51.980;6.722;2022-08-19T10:31:15;15.43;;;13.38;;
64795;SDS011;51229;51.980;6.722;2022-08-19T10:33:44;15.55;;;13.85;;
64795;SDS011;51229;51.980;6.722;2022-08-19T10:36:15;15.82;;;14.10;;
64795;SDS011;51229;51.980;6.722;2022-08-19T10:38:44;13.98;;;11.57;;
64795;SDS011;51229;51.980;6.722;2022-08-19T10:41:14;16.73;;;14.63;;
64795;SDS011;51229;51.980;6.722;2022-08-19T10:43:41;17.00;;;14.52;;
64795;SDS011;51229;51.980;6.722;2022-08-19T10:46:09;20.20;;;15.77;;
64795;SDS011;51229;51.980;6.722;2022-08-19T10:48:36;15.82;;;12.52;;
64795;SDS011;51229;51.980;6.722;2022-08-19T10:51:02;18.52;;;15.88;;
64795;SDS011;51229;51.980;6.722;2022-08-19T10:53:48;16.70;;;13.52;;
64795;SDS011;51229;51.980;6.722;2022-08-19T10:56:14;16.48;;;14.75;;
64795;SDS011;51229;51.980;6.722;2022-08-19T10:58:58;23.70;;;16.60;;
64795;SDS011;51229;51.980;6.722;2022-08-19T11:01:27;21.67;;;18.48;;
64795;SDS011;51229;51.980;6.722;2022-08-19T11:03:55;21.42;;;16.27;;
64795;SDS011;51229;51.980;6.722;2022-08-19T11:06:22;23.88;;;19.05;;
64795;SDS011;51229;51.980;6.722;2022-08-19T11:08:50;19.27;;;17.02;;
64795;SDS011;51229;51.980;6.722;2022-08-19T11:11:16;24.20;;;18.10;;
64795;SDS011;51229;51.980;6.722;2022-08-19T11:13:42;19.20;;;15.88;;
64795;SDS011;51229;51.980;6.722;2022-08-19T11:16:14;18.40;;;16.13;;
64795;SDS011;51229;51.980;6.722;2022-08-19T11:18:45;17.42;;;14.77;;
64795;SDS011;51229;51.980;6.722;2022-08-19T11:21:17;17.23;;;14.52;;
64795;SDS011;51229;51.980;6.722;2022-08-19T11:23:48;14.48;;;11.82;;
64795;SDS011;51229;51.980;6.722;2022-08-19T11:26:16;14.63;;;11.93;;
64795;SDS011;51229;51.980;6.722;2022-08-19T11:28:42;12.32;;;10.57;;
64795;SDS011;51229;51.980;6.722;2022-08-19T11:31:11;16.45;;;12.32;;
64795;SDS011;51229;51.980;6.722;2022-08-19T11:36:06;12.88;;;10.60;;
64795;SDS011;51229;51.980;6.722;2022-08-19T11:38:32;12.30;;;10.05;;
64795;SDS011;51229;51.980;6.722;2022-08-19T11:41:00;10.55;;;8.80;;
64795;SDS011;51229;51.980;6.722;2022-08-19T11:43:32;12.43;;;9.25;;
64795;SDS011;51229;51.980;6.722;2022-08-19T11:45:59;9.43;;;7.50;;
64795;SDS011;51229;51.980;6.722;2022-08-19T11:48:25;13.95;;;10.35;;
64795;SDS011;51229;51.980;6.722;2022-08-19T11:50:52;10.48;;;8.57;;
64795;SDS011;51229;51.980;6.722;2022-08-19T11:53:20;9.38;;;7.03;;
64795;SDS011;51229;51.980;6.722;2022-08-19T11:55:47;9.48;;;7.68;;
64795;SDS011;51229;51.980;6.722;2022-08-19T11:58:13;9.85;;;7.30;;
64795;SDS011;51229;51.980;6.722;2022-08-19T12:00:41;9.25;;;6.88;;
64795;SDS011;51229;51.980;6.722;2022-08-19T12:03:07;9.38;;;6.90;;
64795;SDS011;51229;51.980;6.722;2022-08-19T12:05:36;8.50;;;6.45;;
64795;SDS011;51229;51.980;6.722;2022-08-19T12:08:02;9.25;;;6.18;;
64795;SDS011;51229;51.980;6.722;2022-08-19T12:10:27;8.95;;;7.60;;
64795;SDS011;51229;51.980;6.722;2022-08-19T12:12:53;8.70;;;5.78;;
64795;SDS011;51229;51.980;6.722;2022-08-19T12:15:19;10.32;;;6.28;;
64795;SDS011;51229;51.980;6.722;2022-08-19T12:17:45;8.23;;;6.25;;
64795;SDS011;51229;51.980;6.722;2022-08-19T12:20:11;8.98;;;6.35;;
64795;SDS011;51229;51.980;6.722;2022-08-19T12:22:40;10.18;;;6.32;;
64795;SDS011;51229;51.980;6.722;2022-08-19T12:25:06;5.85;;;4.93;;
64795;SDS011;51229;51.980;6.722;2022-08-19T12:27:33;9.73;;;6.35;;
64795;SDS011;51229;51.980;6.722;2022-08-19T12:30:00;9.68;;;7.72;;
64795;SDS011;51229;51.980;6.722;2022-08-19T12:32:26;8.48;;;6.63;;
64795;SDS011;51229;51.980;6.722;2022-08-19T12:34:52;9.38;;;7.10;;
64795;SDS011;51229;51.980;6.722;2022-08-19T12:37:18;12.30;;;7.63;;
64795;SDS011;51229;51.980;6.722;2022-08-19T12:39:44;10.07;;;8.13;;
64795;SDS011;51229;51.980;6.722;2022-08-19T12:42:11;12.98;;;9.88;;
64795;SDS011;51229;51.980;6.722;2022-08-19T12:44:38;12.60;;;9.68;;
64795;SDS011;51229;51.980;6.722;2022-08-19T12:47:06;16.30;;;11.63;;
64795;SDS011;51229;51.980;6.722;2022-08-19T12:49:32;11.75;;;10.18;;
64795;SDS011;51229;51.980;6.722;2022-08-19T12:51:59;15.50;;;10.98;;
64795;SDS011;51229;51.980;6.722;2022-08-19T12:54:26;15.15;;;10.57;;
64795;SDS011;51229;51.980;6.722;2022-08-19T12:56:53;20.25;;;13.10;;
64795;SDS011;51229;51.980;6.722;2022-08-19T12:59:19;16.63;;;12.38;;
64795;SDS011;51229;51.980;6.722;2022-08-19T13:01:44;16.48;;;11.02;;
64795;SDS011;51229;51.980;6.722;2022-08-19T13:04:10;15.55;;;13.65;;
64795;SDS011;51229;51.980;6.722;2022-08-19T13:06:36;14.63;;;10.75;;
64795;SDS011;51229;51.980;6.722;2022-08-19T13:09:05;16.50;;;11.27;;
64795;SDS011;51229;51.980;6.722;2022-08-19T13:11:31;18.33;;;11.32;;
64795;SDS011;51229;51.980;6.722;2022-08-19T13:14:00;16.98;;;11.40;;
64795;SDS011;51229;51.980;6.722;2022-08-19T13:16:27;14.52;;;11.98;;
64795;SDS011;51229;51.980;6.722;2022-08-19T13:18:54;16.05;;;12.63;;
64795;SDS011;51229;51.980;6.722;2022-08-19T13:21:22;15.15;;;10.85;;
64795;SDS011;51229;51.980;6.722;2022-08-19T13:23:50;15.77;;;11.80;;
64795;SDS011;51229;51.980;6.722;2022-08-19T13:26:16;12.23;;;9.68;;
64795;SDS011;51229;51.980;6.722;2022-08-19T13:28:43;11.63;;;9.10;;
64795;SDS011;51229;51.980;6.722;2022-08-19T13:31:29;11.80;;;9.45;;
64795;SDS011;51229;51.980;6.722;2022-08-19T13:34:16;9.80;;;8.35;;
64795;SDS011;51229;51.980;6.722;2022-08-19T13:36:44;13.75;;;10.48;;
64795;SDS011;51229;51.980;6.722;2022-08-19T13:39:10;12.32;;;9.82;;
64795;SDS011;51229;51.980;6.722;2022-08-19T13:41:36;11.77;;;9.65;;
64795;SDS011;51229;51.980;6.722;2022-08-19T13:44:02;10.68;;;9.00;;
64795;SDS011;51229;51.980;6.722;2022-08-19T13:46:29;9.50;;;8.40;;
64795;SDS011;51229;51.980;6.722;2022-08-19T13:48:55;10.38;;;7.80;;
64795;SDS011;51229;51.980;6.722;2022-08-19T13:51:22;13.93;;;9.48;;
64795;SDS011;51229;51.980;6.722;2022-08-19T13:53:48;10.05;;;8.65;;
64795;SDS011;51229;51.980;6.722;2022-08-19T13:56:16;12.40;;;9.65;;
64795;SDS011;51229;51.980;6.722;2022-08-19T13:58:44;9.05;;;7.22;;
64795;SDS011;51229;51.980;6.722;2022-08-19T14:01:10;7.53;;;6.05;;
64795;SDS011;51229;51.980;6.722;2022-08-19T14:03:37;8.63;;;6.35;;
64795;SDS011;51229;51.980;6.722;2022-08-19T14:06:02;9.40;;;6.85;;
64795;SDS011;51229;51.980;6.722;2022-08-19T14:08:29;7.47;;;6.03;;
64795;SDS011;51229;51.980;6.722;2022-08-19T14:10:57;6.55;;;5.20;;
64795;SDS011;51229;51.980;6.722;2022-08-19T14:13:23;9.23;;;5.70;;
64795;SDS011;51229;51.980;6.722;2022-08-19T14:15:49;6.07;;;4.53;;
64795;SDS011;51229;51.980;6.722;2022-08-19T14:18:16;7.20;;;4.95;;
64795;SDS011;51229;51.980;6.722;2022-08-19T14:20:43;5.38;;;3.88;;
64795;SDS011;51229;51.980;6.722;2022-08-19T14:23:09;4.95;;;4.03;;
64795;SDS011;51229;51.980;6.722;2022-08-19T14:25:37;8.38;;;6.05;;
64795;SDS011;51229;51.980;6.722;2022-08-19T14:28:02;8.27;;;7.10;;
64795;SDS011;51229;51.980;6.722;2022-08-19T14:30:29;9.68;;;7.72;;
64795;SDS011;51229;51.980;6.722;2022-08-19T14:32:58;8.57;;;6.00;;
64795;SDS011;51229;51.980;6.722;2022-08-19T14:35:29;11.27;;;6.68;;
64795;SDS011;51229;51.980;6.722;2022-08-19T14:37:59;8.63;;;5.63;;
64795;SDS011;51229;51.980;6.722;2022-08-19T14:40:26;7.75;;;5.80;;
64795;SDS011;51229;51.980;6.722;2022-08-19T14:42:55;8.70;;;7.38;;
64795;SDS011;51229;51.980;6.722;2022-08-19T14:45:24;12.57;;;8.05;;
64795;SDS011;51229;51.980;6.722;2022-08-19T14:47:51;11.35;;;8.65;;
64795;SDS011;51229;51.980;6.722;2022-08-19T14:50:17;8.63;;;7.35;;
64795;SDS011;51229;51.980;6.722;2022-08-19T14:52:43;9.05;;;6.43;;